Time;durP1;ratioP1;P1;durP2;ratioP2;P2;SDS_P1;SDS_P2;PMS_P1;PMS_P2;Temp;Humidity;BMP_temperature;BMP_pressure;BME280_temperature;BME280_humidity;BME280_pressure;Samples;Min_cycle;Max_cycle;Signal;HPM_P1;HPM_P2
2023/12/07 00:01:43;;;;;;;1999.90;999.90;;;-0.60;99.90;;;;;;5070956;28;20443;-77
2023/12/07 00:04:09;;;;;;;1999.90;999.90;;;-0.50;99.90;;;;;;5065109;28;20084;-76
2023/12/07 00:06:35;;;;;;;1999.90;999.90;;;-0.40;99.90;;;;;;5067879;28;20116;-77
2023/12/07 00:09:01;;;;;;;1999.90;999.90;;;-0.30;99.90;;;;;;5053964;28;20037;-78
2023/12/07 00:11:26;;;;;;;1999.90;999.90;;;-0.30;99.90;;;;;;5065819;28;20778;-77
2023/12/07 00:13:52;;;;;;;1999.90;999.90;;;-0.30;99.90;;;;;;5066199;28;20033;-77
2023/12/07 00:16:18;;;;;;;1999.90;999.90;;;-0.30;99.90;;;;;;5065993;28;20056;-77
2023/12/07 00:18:43;;;;;;;1999.90;999.90;;;-0.20;99.90;;;;;;5067997;28;20538;-77
2023/12/07 00:21:09;;;;;;;1999.90;999.90;;;-0.20;99.90;;;;;;5067460;28;20124;-77
2023/12/07 00:23:36;;;;;;;1999.90;999.90;;;-0.20;99.90;;;;;;5074333;28;20599;-79
2023/12/07 00:26:03;;;;;;;1999.90;999.90;;;-0.20;99.90;;;;;;5065501;28;20424;-77
2023/12/07 00:28:29;;;;;;;1999.90;999.90;;;-0.20;99.90;;;;;;5069484;28;20051;-78
2023/12/07 00:30:55;;;;;;;1999.90;999.90;;;-0.20;99.90;;;;;;5068361;28;20154;-79
2023/12/07 00:33:21;;;;;;;1999.90;999.90;;;-0.10;99.90;;;;;;5073201;28;20111;-77
2023/12/07 00:35:47;;;;;;;1999.90;999.90;;;-0.10;99.90;;;;;;5070894;28;20024;-80
2023/12/07 00:38:13;;;;;;;1999.90;999.90;;;-0.30;99.90;;;;;;5071338;28;20593;-78
2023/12/07 00:40:39;;;;;;;1999.90;999.90;;;-0.30;99.90;;;;;;5054655;28;20033;-77
2023/12/07 00:43:06;;;;;;;1999.90;999.90;;;-0.30;99.90;;;;;;5071092;28;20025;-77
2023/12/07 00:45:31;;;;;;;1999.90;999.90;;;-0.40;99.90;;;;;;5069133;28;20502;-77
2023/12/07 00:47:57;;;;;;;1999.90;999.90;;;-0.50;99.90;;;;;;5072176;28;20040;-77
2023/12/07 00:50:23;;;;;;;1999.90;999.90;;;-0.60;99.90;;;;;;5051589;28;20115;-77
2023/12/07 00:52:51;;;;;;;1999.90;999.90;;;-0.60;99.90;;;;;;5067561;28;20182;-78
2023/12/07 00:55:16;;;;;;;1999.90;999.90;;;-0.70;99.90;;;;;;5072636;28;20428;-78
2023/12/07 00:57:42;;;;;;;1999.90;999.90;;;-0.80;99.90;;;;;;5056048;28;20040;-79
2023/12/07 01:00:10;;;;;;;1999.90;999.90;;;-0.90;99.90;;;;;;5070701;28;20091;-78
2023/12/07 01:02:35;;;;;;;1999.90;999.90;;;-0.90;99.90;;;;;;5069907;28;20035;-78
2023/12/07 01:05:01;;;;;;;1999.90;999.90;;;-0.80;99.90;;;;;;5068176;28;20033;-78
2023/12/07 01:07:27;;;;;;;1999.90;999.90;;;-0.80;99.90;;;;;;5051132;28;20490;-77
2023/12/07 01:09:52;;;;;;;1999.90;999.90;;;-0.60;99.90;;;;;;5056037;28;20032;-77
2023/12/07 01:12:18;;;;;;;1999.90;999.90;;;-0.70;99.90;;;;;;5070976;28;20475;-77
2023/12/07 01:14:44;;;;;;;1999.90;999.90;;;-0.70;99.90;;;;;;5070711;28;20043;-78
2023/12/07 01:17:12;;;;;;;1999.90;999.90;;;-0.80;99.90;;;;;;5070417;28;20127;-78
2023/12/07 01:19:38;;;;;;;1999.90;999.90;;;-0.80;99.90;;;;;;5072811;28;20090;-79
2023/12/07 01:22:03;;;;;;;1999.90;999.90;;;-0.80;99.90;;;;;;5073957;28;20036;-77
2023/12/07 01:24:29;;;;;;;1999.90;999.90;;;-0.70;99.90;;;;;;5054507;28;20057;-78
2023/12/07 01:26:55;;;;;;;1999.90;999.90;;;-0.60;99.90;;;;;;5072315;28;20040;-78
2023/12/07 01:29:20;;;;;;;1999.90;999.90;;;-0.70;99.90;;;;;;5104312;27;20049;-79
2023/12/07 01:31:46;;;;;;;1999.90;999.90;;;-0.70;99.90;;;;;;5070377;28;20401;-76
2023/12/07 01:34:12;;;;;;;1999.90;999.90;;;-0.70;99.90;;;;;;5069033;28;20040;-78
2023/12/07 01:36:37;;;;;;;1999.90;999.90;;;-0.80;99.90;;;;;;5071759;28;20529;-77
2023/12/07 01:39:04;;;;;;;1999.90;999.90;;;-0.60;99.90;;;;;;5069572;28;20044;-78
2023/12/07 01:41:30;;;;;;;1999.90;999.90;;;-0.60;99.90;;;;;;5068829;28;20118;-78
2023/12/07 01:43:55;;;;;;;1999.90;999.90;;;-0.50;99.90;;;;;;5067990;28;20112;-77
2023/12/07 01:46:21;;;;;;;1999.90;999.90;;;-0.40;99.90;;;;;;5071913;28;20036;-77
2023/12/07 01:48:49;;;;;;;1999.90;999.90;;;-0.40;99.90;;;;;;5068938;28;20098;-78
2023/12/07 01:51:16;;;;;;;1999.90;999.90;;;-0.60;99.90;;;;;;5068042;28;20052;-80
2023/12/07 01:53:42;;;;;;;1999.90;999.90;;;-0.50;99.90;;;;;;5068264;28;20413;-78
2023/12/07 01:56:08;;;;;;;1999.90;999.90;;;-0.50;99.90;;;;;;5071575;28;20116;-78
2023/12/07 01:58:35;;;;;;;1999.90;999.90;;;-0.60;99.90;;;;;;5068984;28;20032;-79
2023/12/07 02:01:02;;;;;;;1999.90;999.90;;;-0.60;99.90;;;;;;5051688;28;20115;-78
2023/12/07 02:03:29;;;;;;;1999.90;999.90;;;-0.60;99.80;;;;;;5067344;28;20119;-79
2023/12/07 02:05:57;;;;;;;1999.90;999.90;;;-0.60;99.70;;;;;;5069118;28;20041;-78
2023/12/07 02:08:23;;;;;;;1999.90;999.90;;;-0.70;99.70;;;;;;5071465;28;20510;-77
2023/12/07 02:10:48;;;;;;;1999.90;999.90;;;-0.80;99.80;;;;;;5069819;28;20043;-78
2023/12/07 02:13:14;;;;;;;1999.90;999.90;;;-0.80;99.70;;;;;;5068755;28;20497;-78
2023/12/07 02:15:40;;;;;;;1999.90;999.90;;;-0.70;99.80;;;;;;5069668;28;20068;-80
2023/12/07 02:18:20;;;;;;;1999.90;999.90;;;-0.70;99.80;;;;;;5071276;28;20037;-79
2023/12/07 02:21:08;;;;;;;1999.90;999.90;;;-0.70;99.80;;;;;;5069260;28;20490;-78
2023/12/07 02:23:37;;;;;;;1999.90;999.90;;;-0.80;99.80;;;;;;5067625;28;20043;-78
2023/12/07 02:26:06;;;;;;;1999.90;999.90;;;-0.80;99.90;;;;;;5068750;28;20494;-77
2023/12/07 02:28:31;;;;;;;1999.90;999.90;;;-0.70;99.90;;;;;;5070894;28;20127;-77
2023/12/07 02:30:57;;;;;;;1999.90;999.90;;;-0.60;99.80;;;;;;5065933;28;20237;-76
2023/12/07 02:33:23;;;;;;;1999.90;999.90;;;-0.60;99.70;;;;;;5071425;28;20040;-77
2023/12/07 02:35:49;;;;;;;1999.90;999.90;;;-0.50;99.60;;;;;;5068406;28;20033;-77
2023/12/07 02:38:16;;;;;;;1999.90;999.90;;;-0.50;99.60;;;;;;5082152;28;20033;-77
2023/12/07 02:40:45;;;;;;;1999.90;999.90;;;-0.60;99.40;;;;;;5069458;28;20021;-77
2023/12/07 02:43:11;;;;;;;1999.90;999.90;;;-0.60;99.40;;;;;;5069005;28;20081;-77
2023/12/07 02:45:37;;;;;;;1999.90;999.90;;;-0.70;99.30;;;;;;5067786;28;20086;-79
2023/12/07 02:48:03;;;;;;;1999.90;999.90;;;-0.60;99.30;;;;;;5068796;28;20494;-79
2023/12/07 02:50:29;;;;;;;1999.90;999.90;;;-0.60;99.20;;;;;;5072918;28;20146;-80
2023/12/07 02:52:56;;;;;;;1999.90;999.90;;;-0.60;99.20;;;;;;5053603;28;20052;-78
2023/12/07 02:55:22;;;;;;;1999.90;999.90;;;-0.60;99.20;;;;;;5082861;28;20024;-79
2023/12/07 02:57:48;;;;;;;1999.90;999.90;;;-0.70;99.20;;;;;;5064707;28;20733;-79
2023/12/07 03:00:14;;;;;;;1999.90;999.90;;;-1.00;98.90;;;;;;5069461;28;20044;-80
2023/12/07 03:02:41;;;;;;;1999.90;999.90;;;-1.10;99.10;;;;;;5071041;28;20043;-77
2023/12/07 03:05:07;;;;;;;1999.90;999.90;;;-1.10;99.10;;;;;;5068366;28;20024;-77
2023/12/07 03:07:33;;;;;;;1999.90;999.90;;;-1.00;99.20;;;;;;5051925;28;20040;-77
2023/12/07 03:09:59;;;;;;;1999.90;999.90;;;-1.10;99.10;;;;;;5067106;28;20110;-77
2023/12/07 03:12:25;;;;;;;1999.90;999.90;;;-1.40;98.70;;;;;;5068614;28;20066;-77
2023/12/07 03:14:51;;;;;;;1999.90;999.90;;;-1.30;99.00;;;;;;5069153;28;20028;-77
2023/12/07 03:17:17;;;;;;;1999.90;999.90;;;-1.40;99.00;;;;;;5070678;28;20040;-78
2023/12/07 03:19:42;;;;;;;1999.90;999.90;;;-1.40;99.10;;;;;;5068516;28;20024;-77
2023/12/07 03:22:08;;;;;;;1999.90;999.90;;;-1.50;99.20;;;;;;5067893;28;20111;-78
2023/12/07 03:24:35;;;;;;;1999.90;999.90;;;-1.50;99.10;;;;;;5070394;28;20037;-77
2023/12/07 03:27:01;;;;;;;1999.90;999.90;;;-1.60;99.10;;;;;;5051509;28;20033;-77
2023/12/07 03:29:26;;;;;;;1999.90;999.90;;;-1.60;99.10;;;;;;5052142;28;20396;-77
2023/12/07 03:31:52;;;;;;;1999.90;999.90;;;-1.70;99.00;;;;;;5071940;28;20501;-77
2023/12/07 03:34:18;;;;;;;1999.90;999.90;;;-1.80;99.00;;;;;;5101698;28;20043;-76
2023/12/07 03:36:47;;;;;;;1999.90;999.90;;;-1.80;99.00;;;;;;5069305;28;20174;-77
2023/12/07 03:39:22;;;;;;;1999.90;999.90;;;-1.90;99.10;;;;;;5065946;28;20505;-77
2023/12/07 03:41:48;;;;;;;1999.90;999.90;;;-1.90;99.30;;;;;;5068771;28;20541;-77
2023/12/07 03:44:14;;;;;;;1999.90;999.90;;;-1.90;99.40;;;;;;5067524;28;20036;-78
2023/12/07 03:46:40;;;;;;;1999.90;999.90;;;-1.80;99.70;;;;;;5069500;28;20043;-77
2023/12/07 03:49:05;;;;;;;1999.90;999.90;;;-1.80;99.80;;;;;;5069912;28;20025;-77
2023/12/07 03:51:31;;;;;;;1999.90;999.90;;;-1.80;99.90;;;;;;5067299;28;20188;-78
2023/12/07 03:53:57;;;;;;;1999.90;999.90;;;-1.80;99.90;;;;;;5101801;28;20025;-77
2023/12/07 03:56:27;;;;;;;1999.90;999.90;;;-1.80;99.90;;;;;;5070785;28;20029;-77
2023/12/07 03:58:53;;;;;;;1999.90;999.90;;;-2.00;99.90;;;;;;5070311;28;20044;-78
2023/12/07 04:01:23;;;;;;;1999.90;999.90;;;-1.90;99.90;;;;;;5066853;28;20402;-77
2023/12/07 04:03:49;;;;;;;1999.90;999.90;;;-2.00;99.90;;;;;;5068338;28;20111;-77
2023/12/07 04:06:16;;;;;;;1999.90;999.90;;;-2.10;99.90;;;;;;5066644;28;20044;-77
2023/12/07 04:08:42;;;;;;;1999.90;999.90;;;-2.10;99.90;;;;;;5074420;28;20462;-77
2023/12/07 04:11:08;;;;;;;1999.90;999.90;;;-2.10;99.90;;;;;;5071331;28;20032;-77
2023/12/07 04:13:34;;;;;;;1999.90;999.90;;;-2.10;99.90;;;;;;5065870;28;20025;-77
2023/12/07 04:15:59;;;;;;;1999.90;999.90;;;-2.20;99.90;;;;;;5069948;28;20048;-77
2023/12/07 04:18:25;;;;;;;1999.90;999.90;;;-2.20;99.90;;;;;;5071539;28;20075;-78
2023/12/07 04:20:52;;;;;;;1999.90;999.90;;;-2.10;99.90;;;;;;5076878;28;20064;-77
2023/12/07 04:23:18;;;;;;;1999.90;999.90;;;-2.30;99.90;;;;;;5078067;28;20040;-78
2023/12/07 04:25:45;;;;;;;1999.90;999.90;;;-2.40;99.90;;;;;;5059740;28;20033;-78
2023/12/07 04:28:10;;;;;;;1999.90;999.90;;;-2.50;99.90;;;;;;5075597;28;20063;-77
2023/12/07 04:30:36;;;;;;;1999.90;999.90;;;-2.60;99.90;;;;;;5073230;28;20021;-78
2023/12/07 04:33:02;;;;;;;1999.90;999.90;;;-2.60;99.90;;;;;;5071545;28;20744;-77
2023/12/07 04:35:28;;;;;;;1999.90;999.90;;;-2.60;99.90;;;;;;5073973;28;20406;-76
2023/12/07 04:37:54;;;;;;;1999.90;999.90;;;-2.60;99.90;;;;;;5074523;28;20043;-76
2023/12/07 04:40:20;;;;;;;1999.90;999.90;;;-2.60;99.90;;;;;;5071018;28;20036;-76
2023/12/07 04:42:45;;;;;;;1999.90;999.90;;;-2.70;99.90;;;;;;5071830;28;20036;-76
2023/12/07 04:45:12;;;;;;;1999.90;999.90;;;-2.70;99.90;;;;;;5074757;28;20096;-77
2023/12/07 04:47:38;;;;;;;1999.90;999.90;;;-2.70;99.90;;;;;;5070230;28;20108;-76
2023/12/07 04:50:04;;;;;;;1999.90;999.90;;;-2.70;99.90;;;;;;5076406;28;20406;-77
2023/12/07 04:52:29;;;;;;;1999.90;999.90;;;-2.80;99.90;;;;;;5073344;28;20411;-77
2023/12/07 04:54:55;;;;;;;1999.90;999.90;;;-2.80;99.90;;;;;;5069319;28;20078;-77
2023/12/07 04:57:21;;;;;;;1999.90;999.90;;;-2.80;99.90;;;;;;5070902;28;20081;-77
2023/12/07 04:59:47;;;;;;;1999.90;999.90;;;-2.90;99.90;;;;;;5039304;28;20037;-77
2023/12/07 05:02:14;;;;;;;1999.90;999.90;;;-2.90;99.90;;;;;;5069692;28;20097;-76
2023/12/07 05:04:40;;;;;;;1999.90;999.90;;;-2.90;99.90;;;;;;5070303;28;20367;-77
2023/12/07 05:07:06;;;;;;;1999.90;999.90;;;-2.90;99.90;;;;;;5052055;28;20043;-76
2023/12/07 05:09:31;;;;;;;1999.90;999.90;;;-2.90;99.90;;;;;;5068144;28;20040;-77
2023/12/07 05:11:58;;;;;;;1999.90;999.90;;;-2.90;99.90;;;;;;5067670;28;20067;-77
2023/12/07 05:14:23;;;;;;;1999.90;999.90;;;-3.00;99.90;;;;;;5070259;28;20589;-77
2023/12/07 05:16:52;;;;;;;1999.90;999.90;;;-3.00;99.90;;;;;;5073824;28;20090;-76
2023/12/07 05:19:20;;;;;;;1999.90;999.90;;;-3.00;99.90;;;;;;5071689;28;20038;-77
2023/12/07 05:21:46;;;;;;;1999.90;999.90;;;-3.00;99.90;;;;;;5071120;28;20501;-78
2023/12/07 05:24:13;;;;;;;1999.90;999.90;;;-3.00;99.90;;;;;;5071569;28;20028;-78
2023/12/07 05:26:43;;;;;;;1999.90;999.90;;;-3.10;99.90;;;;;;5071746;28;20032;-78
2023/12/07 05:29:10;;;;;;;1999.90;999.90;;;-3.20;99.90;;;;;;5067838;28;20120;-78
2023/12/07 05:31:36;;;;;;;1999.90;999.90;;;-3.20;99.90;;;;;;5069678;28;20063;-78
2023/12/07 05:34:02;;;;;;;1999.90;999.90;;;-3.20;99.90;;;;;;5069331;28;20029;-77
2023/12/07 05:36:28;;;;;;;1999.90;999.90;;;-3.20;99.90;;;;;;5072045;28;20186;-78
2023/12/07 05:38:53;;;;;;;1999.90;999.90;;;-3.10;99.90;;;;;;5053757;28;20124;-77
2023/12/07 05:41:19;;;;;;;1999.90;999.90;;;-3.10;99.90;;;;;;5070646;28;20028;-77
2023/12/07 05:43:45;;;;;;;1999.90;999.90;;;-3.10;99.90;;;;;;5071198;28;20028;-78
2023/12/07 05:46:10;;;;;;;1999.90;999.90;;;-3.10;99.80;;;;;;5071555;28;20882;-78
2023/12/07 05:48:36;;;;;;;1999.90;999.90;;;-3.10;99.90;;;;;;5067684;28;20040;-78
2023/12/07 05:51:02;;;;;;;1999.90;999.90;;;-3.00;99.90;;;;;;5049010;28;20166;-77
2023/12/07 05:53:28;;;;;;;1999.90;999.90;;;-3.00;99.90;;;;;;5070532;28;20134;-78
2023/12/07 05:55:57;;;;;;;1999.90;999.90;;;-3.00;99.90;;;;;;5072594;28;20036;-77
2023/12/07 05:58:23;;;;;;;1999.90;999.90;;;-3.00;99.90;;;;;;5102330;27;20252;-77
2023/12/07 06:00:49;;;;;;;1999.90;999.90;;;-3.00;99.90;;;;;;5067233;28;20111;-78
2023/12/07 06:03:15;;;;;;;1999.90;999.90;;;-3.00;99.90;;;;;;5069951;28;20541;-78
2023/12/07 06:05:41;;;;;;;1999.90;999.90;;;-3.00;99.90;;;;;;5070437;28;20032;-78
2023/12/07 06:08:07;;;;;;;1999.90;999.90;;;-3.00;99.90;;;;;;5069820;28;20108;-77
2023/12/07 06:10:33;;;;;;;1999.90;999.90;;;-3.10;99.80;;;;;;5072678;28;20040;-76
2023/12/07 06:13:00;;;;;;;1999.90;999.90;;;-3.10;99.90;;;;;;5067120;28;20029;-76
2023/12/07 06:15:27;;;;;;;1999.90;999.90;;;-3.10;99.90;;;;;;5065779;28;20027;-76
2023/12/07 06:17:57;;;;;;;1999.90;999.90;;;-3.10;99.90;;;;;;5069569;28;20029;-76
2023/12/07 06:20:22;;;;;;;1999.90;999.90;;;-3.10;99.90;;;;;;5064632;28;20025;-76
2023/12/07 06:22:48;;;;;;;1999.90;999.90;;;-3.10;99.90;;;;;;5049764;28;20040;-76
2023/12/07 06:25:14;;;;;;;1999.90;999.90;;;-3.20;99.90;;;;;;5067609;28;20048;-76
2023/12/07 06:27:40;;;;;;;1999.90;999.90;;;-3.20;99.90;;;;;;5069374;28;20033;-76
2023/12/07 06:30:06;;;;;;;1999.90;999.90;;;-3.30;99.70;;;;;;5066658;28;20036;-79
2023/12/07 06:32:33;;;;;;;1999.90;999.90;;;-3.30;99.70;;;;;;5071863;28;20036;-80
2023/12/07 06:35:00;;;;;;;1999.90;999.90;;;-3.30;99.70;;;;;;5062193;28;20032;-75
2023/12/07 06:37:26;;;;;;;1999.90;999.90;;;-3.40;99.80;;;;;;5066178;28;20071;-75
2023/12/07 06:39:52;;;;;;;1999.90;999.90;;;-3.50;99.80;;;;;;5071414;28;20100;-79
2023/12/07 06:42:18;;;;;;;1999.90;999.90;;;-3.50;99.70;;;;;;5064894;28;20129;-80
2023/12/07 06:44:46;;;;;;;1999.90;999.90;;;-3.50;99.60;;;;;;5066699;28;20181;-78
2023/12/07 06:47:11;;;;;;;1999.90;999.90;;;-3.60;99.40;;;;;;5067446;28;20110;-80
2023/12/07 06:49:37;;;;;;;1999.90;999.90;;;-3.60;99.40;;;;;;5049797;28;20082;-80
2023/12/07 06:52:06;;;;;;;1999.90;999.90;;;-3.70;99.30;;;;;;5064611;28;20495;-81
2023/12/07 06:54:31;;;;;;;1999.90;999.90;;;-3.80;99.30;;;;;;5065208;28;20035;-81
2023/12/07 06:56:57;;;;;;;1999.90;999.90;;;-4.00;99.20;;;;;;5067769;28;20024;-79
2023/12/07 06:59:22;;;;;;;1999.90;999.90;;;-4.00;99.30;;;;;;5070904;28;20040;-80
2023/12/07 07:01:48;;;;;;;1999.90;999.90;;;-4.00;99.50;;;;;;5065655;28;20728;-80
2023/12/07 07:04:14;;;;;;;1999.90;999.90;;;-3.90;99.30;;;;;;5050665;28;20413;-80
2023/12/07 07:06:41;;;;;;;1999.90;999.90;;;-3.90;99.10;;;;;;5071985;28;20490;-81
2023/12/07 07:09:06;;;;;;;1999.90;999.90;;;-3.90;99.00;;;;;;5071429;28;20392;-79
2023/12/07 07:11:32;;;;;;;1999.90;999.90;;;-3.80;99.20;;;;;;5070356;28;20028;-80
2023/12/07 07:13:58;;;;;;;1999.90;999.90;;;-3.90;99.00;;;;;;5068073;28;20468;-80
2023/12/07 07:16:24;;;;;;;1999.90;999.90;;;-3.90;98.90;;;;;;5073281;28;20123;-80
2023/12/07 07:18:50;;;;;;;1999.90;999.90;;;-3.90;98.90;;;;;;5069898;28;20166;-80
2023/12/07 07:21:15;;;;;;;1999.90;999.90;;;-4.00;98.90;;;;;;5061353;28;20029;-79
2023/12/07 07:23:41;;;;;;;1999.90;999.90;;;-3.90;99.00;;;;;;5069515;28;20581;-79
2023/12/07 07:26:08;;;;;;;1999.90;999.90;;;-3.90;99.00;;;;;;5053571;28;20552;-79
2023/12/07 07:28:34;;;;;;;1999.90;999.90;;;-4.00;98.90;;;;;;5071019;28;20108;-80
2023/12/07 07:31:00;;;;;;;1999.90;999.90;;;-4.40;98.10;;;;;;5070606;28;20024;-79
2023/12/07 07:33:26;;;;;;;1999.90;999.90;;;-4.30;98.50;;;;;;5073576;28;20029;-79
2023/12/07 07:35:52;;;;;;;1999.90;999.90;;;-4.20;98.80;;;;;;5069404;28;20024;-79
2023/12/07 07:38:17;;;;;;;1999.90;999.90;;;-4.10;98.80;;;;;;5074239;28;20086;-79
2023/12/07 07:40:45;;;;;;;1999.90;999.90;;;-4.10;98.80;;;;;;5069340;28;20032;-79
2023/12/07 07:43:11;;;;;;;1999.90;999.90;;;-4.00;98.80;;;;;;5076285;28;20027;-80
2023/12/07 07:45:36;;;;;;;1999.90;999.90;;;-3.90;98.80;;;;;;5075667;28;20432;-80
2023/12/07 07:48:02;;;;;;;1999.90;999.90;;;-3.90;98.70;;;;;;5074514;28;20071;-81
2023/12/07 07:50:28;;;;;;;1999.90;999.90;;;-3.90;98.60;;;;;;5071790;28;20405;-79
2023/12/07 07:52:55;;;;;;;1999.90;999.90;;;-3.80;98.60;;;;;;5056871;28;20037;-80
2023/12/07 07:55:20;;;;;;;1999.90;999.90;;;-3.70;98.70;;;;;;5057280;28;20028;-79
2023/12/07 07:57:46;;;;;;;1999.90;999.90;;;-3.80;98.60;;;;;;5075567;28;20028;-80
2023/12/07 08:00:15;;;;;;;1999.90;999.90;;;-3.70;98.60;;;;;;5055405;28;20489;-80
2023/12/07 08:02:41;;;;;;;1999.90;999.90;;;-3.60;98.70;;;;;;5070583;28;20054;-80
2023/12/07 08:05:07;;;;;;;1999.90;999.90;;;-3.60;98.70;;;;;;5071006;28;20025;-80
2023/12/07 08:07:33;;;;;;;1999.90;999.90;;;-3.60;98.70;;;;;;5078982;28;20102;-80
2023/12/07 08:09:58;;;;;;;1999.90;999.90;;;-3.60;98.70;;;;;;5072559;28;20033;-80
2023/12/07 08:12:24;;;;;;;1999.90;999.90;;;-3.60;98.50;;;;;;5070486;28;20132;-81
2023/12/07 08:14:50;;;;;;;1999.90;999.90;;;-3.60;98.50;;;;;;5073003;28;20066;-80
2023/12/07 08:17:16;;;;;;;1999.90;999.90;;;-3.60;98.50;;;;;;5067485;28;20079;-80
2023/12/07 08:19:42;;;;;;;1999.90;999.90;;;-3.70;98.10;;;;;;5072064;28;20485;-80
2023/12/07 08:22:08;;;;;;;1999.90;999.90;;;-3.70;98.30;;;;;;5049700;28;20063;-80
2023/12/07 08:24:35;;;;;;;1999.90;999.90;;;-3.80;98.60;;;;;;5071557;28;20024;-80
2023/12/07 08:27:00;;;;;;;1999.90;999.90;;;-3.70;98.70;;;;;;5071153;28;20043;-80
2023/12/07 08:29:26;;;;;;;1999.90;999.90;;;-3.70;98.80;;;;;;5072696;28;20033;-79
2023/12/07 08:31:52;;;;;;;1999.90;999.90;;;-3.80;98.90;;;;;;5055877;28;20020;-80
2023/12/07 08:34:17;;;;;;;1999.90;999.90;;;-3.70;99.30;;;;;;5069771;28;20017;-79
2023/12/07 08:36:43;;;;;;;1999.90;999.90;;;-3.60;99.30;;;;;;5070778;28;20083;-79
2023/12/07 08:39:09;;;;;;;1999.90;999.90;;;-3.60;99.30;;;;;;5069579;28;20100;-79
2023/12/07 08:41:36;;;;;;;1999.90;999.90;;;-3.40;99.40;;;;;;5071138;28;20542;-79
2023/12/07 08:44:02;;;;;;;1999.90;999.90;;;-3.30;99.60;;;;;;5071616;28;20036;-79
2023/12/07 08:46:28;;;;;;;1999.90;999.90;;;-3.30;99.70;;;;;;5067882;28;20086;-80
2023/12/07 08:48:54;;;;;;;1999.90;999.90;;;-3.30;99.70;;;;;;5072525;28;20036;-80
2023/12/07 08:51:19;;;;;;;1999.90;999.90;;;-3.20;99.70;;;;;;5069561;28;20139;-80
2023/12/07 08:53:46;;;;;;;1999.90;999.90;;;-3.10;99.90;;;;;;5070390;28;20039;-80
2023/12/07 08:56:12;;;;;;;1999.90;999.90;;;-2.90;99.90;;;;;;5056747;28;20288;-80
2023/12/07 08:58:41;;;;;;;1999.90;999.90;;;-2.90;99.80;;;;;;5102993;27;20028;-80
2023/12/07 09:01:07;;;;;;;1999.90;999.90;;;-2.90;99.60;;;;;;5068926;28;20039;-80
2023/12/07 09:03:37;;;;;;;1999.90;999.90;;;-3.00;99.60;;;;;;5099765;27;20044;-80
2023/12/07 09:06:03;;;;;;;1999.90;999.90;;;-2.90;99.70;;;;;;5072622;28;20031;-80
2023/12/07 09:08:29;;;;;;;1999.90;999.90;;;-2.80;99.70;;;;;;5104668;27;20143;-80
2023/12/07 09:10:54;;;;;;;1999.90;999.90;;;-2.80;99.60;;;;;;5069946;28;20112;-80
2023/12/07 09:13:20;;;;;;;1999.90;999.90;;;-2.80;99.50;;;;;;5067613;28;20060;-80
2023/12/07 09:15:46;;;;;;;1999.90;999.90;;;-2.70;99.50;;;;;;5064058;28;20454;-80
2023/12/07 09:18:11;;;;;;;1999.90;999.90;;;-2.70;99.00;;;;;;5068502;28;20024;-80
2023/12/07 09:20:45;;;;;;;1999.90;999.90;;;-2.70;99.10;;;;;;5101781;27;20036;-80
2023/12/07 09:23:12;;;;;;;1999.90;999.90;;;-2.60;99.00;;;;;;5071810;28;20397;-79
2023/12/07 09:25:38;;;;;;;1999.90;999.90;;;-2.50;99.00;;;;;;5066111;28;20035;-79
2023/12/07 09:28:04;;;;;;;1999.90;999.90;;;-2.40;98.50;;;;;;5074210;28;20085;-79
2023/12/07 09:30:30;;;;;;;1999.90;999.90;;;-2.30;97.60;;;;;;5069163;28;20116;-79
2023/12/07 09:32:55;;;;;;;1999.90;999.90;;;-2.40;97.90;;;;;;5076718;28;20052;-79
2023/12/07 09:35:21;;;;;;;1999.90;999.90;;;-2.40;98.00;;;;;;5071389;28;20099;-78
2023/12/07 09:37:48;;;;;;;1999.90;999.90;;;-2.70;97.30;;;;;;5050415;28;20033;-78
2023/12/07 09:40:19;;;;;;;1999.90;999.90;;;-2.60;97.50;;;;;;5070816;28;20141;-79
2023/12/07 09:42:46;;;;;;;1999.90;999.90;;;-2.40;97.70;;;;;;5069662;28;20048;-79
2023/12/07 09:45:14;;;;;;;1999.90;999.90;;;-2.60;97.30;;;;;;5069365;28;20021;-79
2023/12/07 09:47:41;;;;;;;1999.90;999.90;;;-2.50;97.50;;;;;;5067498;28;20121;-78
2023/12/07 09:50:08;;;;;;;1999.90;999.90;;;-2.60;97.60;;;;;;5071643;28;20566;-78
2023/12/07 09:52:34;;;;;;;1999.90;999.90;;;-2.50;97.90;;;;;;5069771;28;20044;-79
2023/12/07 09:55:03;;;;;;;1999.90;999.90;;;-2.20;98.10;;;;;;5069752;28;20013;-78
2023/12/07 09:57:33;;;;;;;1999.90;999.90;;;-2.10;97.80;;;;;;5071646;28;20021;-78
2023/12/07 09:59:59;;;;;;;;;;;-2.00;97.70;;;;;;5072765;28;20017;-77
2023/12/07 10:02:26;;;;;;;1999.90;999.90;;;-2.10;97.50;;;;;;5099084;27;19997;-80
2023/12/07 10:05:05;;;;;;;1999.90;999.90;;;-2.10;97.60;;;;;;5071284;28;20054;-78
2023/12/07 10:07:36;;;;;;;1999.90;999.90;;;-2.00;97.70;;;;;;5054367;28;20325;-78
2023/12/07 10:10:03;;;;;;;;;;;-2.00;97.50;;;;;;5069985;28;20032;-78
2023/12/07 10:12:34;;;;;;;1999.90;999.90;;;-2.00;97.30;;;;;;5069514;28;19915;-79
2023/12/07 10:15:20;;;;;;;1999.90;999.90;;;-1.90;97.40;;;;;;5070542;28;20087;-78
2023/12/07 10:17:49;;;;;;;1999.90;999.90;;;-1.70;97.40;;;;;;5069091;28;20043;-78
2023/12/07 10:20:17;;;;;;;1999.90;999.90;;;-1.60;97.20;;;;;;5066227;28;20085;-79
2023/12/07 10:22:43;;;;;;;1999.90;999.90;;;-1.70;97.20;;;;;;5071621;28;20024;-77
2023/12/07 10:25:11;;;;;;;1999.90;999.90;;;-1.60;97.20;;;;;;5070270;28;20063;-79
2023/12/07 10:27:38;;;;;;;1999.90;999.90;;;-1.50;97.20;;;;;;5068572;28;20025;-78
2023/12/07 10:30:06;;;;;;;1999.90;999.90;;;-1.50;97.30;;;;;;5069371;28;20112;-78
2023/12/07 10:32:36;;;;;;;1999.90;999.90;;;-1.50;97.40;;;;;;5068730;28;20031;-78
2023/12/07 10:35:01;;;;;;;1999.90;999.90;;;-1.40;97.30;;;;;;5068874;28;20024;-78
2023/12/07 10:37:27;;;;;;;1999.90;999.90;;;-1.30;97.40;;;;;;5071806;28;20086;-77
2023/12/07 10:39:53;;;;;;;1999.90;999.90;;;-1.20;97.30;;;;;;5053048;28;20040;-77
2023/12/07 10:42:23;;;;;;;1999.90;999.90;;;-1.10;97.30;;;;;;5065812;28;20029;-78
2023/12/07 10:44:53;;;;;;;1999.90;999.90;;;-1.10;97.30;;;;;;5069298;28;20028;-78
2023/12/07 10:47:22;;;;;;;1999.90;999.90;;;-1.00;97.10;;;;;;5070446;28;20036;-77
2023/12/07 10:49:52;;;;;;;1999.90;999.90;;;-1.00;97.30;;;;;;5069844;28;20021;-79
2023/12/07 10:52:23;;;;;;;1999.90;999.90;;;-0.90;97.10;;;;;;5068231;28;20048;-78
2023/12/07 10:55:06;;;;;;;1999.90;999.90;;;-0.90;97.00;;;;;;5070832;28;20100;-79
2023/12/07 10:57:34;;;;;;;1999.90;999.90;;;-0.90;97.10;;;;;;5066854;28;20028;-79
2023/12/07 11:00:01;;;;;;;1999.90;999.90;;;-0.80;97.10;;;;;;5075635;28;20025;-78
2023/12/07 11:02:28;;;;;;;1999.90;999.90;;;-0.60;97.10;;;;;;5072162;28;20040;-78
2023/12/07 11:04:56;;;;;;;1999.90;999.90;;;-0.60;96.80;;;;;;5071535;28;20028;-78
2023/12/07 11:07:25;;;;;;;1999.90;999.90;;;-0.60;96.60;;;;;;5073711;28;20032;-79
2023/12/07 11:10:01;;;;;;;1999.90;999.90;;;-0.60;96.50;;;;;;5073694;28;20036;-80
2023/12/07 11:12:50;;;;;;;1999.90;999.90;;;-0.60;96.20;;;;;;5067161;28;20033;-78
2023/12/07 11:15:17;;;;;;;1999.90;999.90;;;-0.50;95.90;;;;;;5077017;28;20024;-79
2023/12/07 11:17:56;;;;;;;1999.90;999.90;;;-0.50;95.70;;;;;;5071773;28;20038;-79
2023/12/07 11:20:44;;;;;;;1999.90;999.90;;;-0.40;95.60;;;;;;5059445;28;20525;-80
2023/12/07 11:23:10;;;;;;;1999.90;999.90;;;-0.40;95.30;;;;;;5075379;28;20104;-80
2023/12/07 11:25:37;;;;;;;1999.90;999.90;;;-0.30;95.10;;;;;;5070053;28;20076;-78
2023/12/07 11:28:07;;;;;;;1999.90;999.90;;;-0.20;95.10;;;;;;5070818;28;20612;-79
2023/12/07 11:30:36;;;;;;;1999.90;999.90;;;-0.20;95.00;;;;;;5069764;28;20106;-78
2023/12/07 11:33:04;;;;;;;1999.90;999.90;;;-0.20;94.70;;;;;;5072584;28;20028;-80
2023/12/07 11:35:30;;;;;;;1999.90;999.90;;;-0.10;94.70;;;;;;5072998;28;20681;-79
2023/12/07 11:38:12;;;;;;;1999.90;999.90;;;-0.20;94.70;;;;;;5065369;28;20039;-79
2023/12/07 11:40:41;;;;;;;1999.90;999.90;;;-0.20;94.60;;;;;;5070255;28;20098;-79
2023/12/07 11:43:07;;;;;;;1999.90;999.90;;;-0.20;94.50;;;;;;5070270;28;20576;-81
2023/12/07 11:46:02;;;;;;;1999.90;999.90;;;-0.20;94.60;;;;;;5065795;28;20139;-78
2023/12/07 11:48:28;;;;;;;1999.90;999.90;;;-0.10;94.50;;;;;;5064170;28;20040;-79
2023/12/07 11:50:56;;;;;;;1999.90;999.90;;;-0.10;94.40;;;;;;5065686;28;20182;-79
2023/12/07 11:53:26;;;;;;;1999.90;999.90;;;-0.20;94.30;;;;;;5100108;28;20033;-79
2023/12/07 11:55:52;;;;;;;;;;;-0.10;94.30;;;;;;5070603;28;20115;-80
2023/12/07 11:58:18;;;;;;;1999.90;999.90;;;-0.20;94.10;;;;;;5067200;28;19991;-78
2023/12/07 12:00:47;;;;;;;1999.90;999.90;;;-0.30;94.00;;;;;;5070623;28;20716;-80